Astrodome, Texas
Current Conditions -  °F | °C
As of 10:15 PM on Monday 22 Dec 2014 (Local Time) from KMCJ Reporting Station
NA  
Wind Chill: 59°   Ceiling: NA
Heat Index: 59°   Visibility: NA
Dew Point: 59°   Wind: 7mph
Humidity: 100%   Direction: 250°WSW
Pressure: 29.65"   Gusts: NA
Location:  29.6867°N, 95.4345°W
Report Text: KMCJ 230415Z AUTO 25006KT 15/15 A2965 RMK AO1
Loading
Personal Weather Stations






























Interactive Weather Map New forecast layout! Learn more

10-Day Weather Forecast

Advertisements
Track Severe Weather on mobile